• Join FlightAware (Why Join?)
  • Login
  • US Flag 
08:44PM EDT


 

Airport Tracker/Info


-or-


 

Live Flight TrackerFlight Track Log ✈ N8343Y ✈ 05-May-2013 ✈ 0C0 - KPWK

Flight Track Log - Related Links

Times and Time Zones

All times are in EDT time to prevent confusion due to time zone crossing. See the N8343Y flight status page for this flight to view local times or setup timezone preferences in your user account.

Time Position Orientation Groundspeed Altitude Reporting Facility
EDT Latitude Longitude Course Direction KTS MPH feet Rate Location/Type
02:09PM 42.3578 -88.5083 121° Southeast 121 139 2,900  Level Chicago Center
02:10PM 42.3422 -88.4636 115° Southeast 128 147 2,900  Level Chicago Center
02:11PM 42.3403 -88.4181 93° East 130 150 2,900  Level Chicago Center
02:12PM 42.3367 -88.3636 95° East 135 155 2,900  Level Chicago Center
02:13PM 42.3339 -88.3161 95° East 130 150 2,900  Level Chicago Center
02:14PM 42.3083 -88.3914 121° Southeast  Level Estimated
02:14PM 42.3375 -88.2586 85° East 133 153 2,900  Level Chicago Center
02:15PM 42.3489 -88.2133 71° East 129 148 2,900  Level Chicago Center
02:16PM 42.3594 -88.1667 73° East 128 147 2,900  Level Chicago Center
02:17PM 42.3706 -88.1222 71° East 127 146 2,900  Level Chicago Center
02:18PM 42.3744 -88.0733 84° East 139 160 2,900  Level Chicago Center
02:19PM 42.3406 -88.0375 142° Southeast 134 154 2,900  Level Chicago Center
02:20PM 42.3100 -88.0086 145° Southeast 136 157 2,900  Level Chicago Center
02:21PM 42.2733 -87.9889 158° South 140 161 2,900 -180 Level Chicago Center
02:22PM 42.2375 -87.9700 159° South 139 160 2,600 -360 Descending Chicago Center
02:23PM 42.2019 -87.9542 162° South 138 159 2,200 -420 Descending Chicago Center
02:25PM 42.1544 -87.9289 158° South  Level FlightAware Approximate
02:32PM 42.1143 -87.9015 158° South  Level Estimated
02:33PM 42.1143 -87.9015 158° South  Level Estimated
02:34PM 42.1143 -87.9015 158° South  Level Estimated